sensor_id;sensor_type;location;lat;lon;timestamp;P1;durP1;ratioP1;P2;durP2;ratioP2
23282;SDS011;11810;51.178;3.878;2023-07-02T00:01:47;55.60;;;25.17;;
23282;SDS011;11810;51.178;3.878;2023-07-02T00:04:13;53.75;;;26.50;;
23282;SDS011;11810;51.178;3.878;2023-07-02T00:06:44;61.53;;;29.88;;
23282;SDS011;11810;51.178;3.878;2023-07-02T00:09:10;62.38;;;31.75;;
23282;SDS011;11810;51.178;3.878;2023-07-02T00:11:40;74.68;;;36.08;;
23282;SDS011;11810;51.178;3.878;2023-07-02T00:14:07;59.97;;;31.00;;
23282;SDS011;11810;51.178;3.878;2023-07-02T00:16:35;58.15;;;27.55;;
23282;SDS011;11810;51.178;3.878;2023-07-02T00:19:02;56.88;;;25.63;;
23282;SDS011;11810;51.178;3.878;2023-07-02T00:21:28;66.80;;;33.03;;
23282;SDS011;11810;51.178;3.878;2023-07-02T00:23:55;65.07;;;31.08;;
23282;SDS011;11810;51.178;3.878;2023-07-02T00:26:24;83.22;;;38.05;;
23282;SDS011;11810;51.178;3.878;2023-07-02T00:28:51;64.80;;;34.90;;
23282;SDS011;11810;51.178;3.878;2023-07-02T00:31:17;78.90;;;40.05;;
23282;SDS011;11810;51.178;3.878;2023-07-02T00:33:43;90.65;;;46.67;;
23282;SDS011;11810;51.178;3.878;2023-07-02T00:36:09;83.82;;;42.85;;
23282;SDS011;11810;51.178;3.878;2023-07-02T00:38:41;81.95;;;46.40;;
23282;SDS011;11810;51.178;3.878;2023-07-02T00:41:10;87.28;;;47.05;;
23282;SDS011;11810;51.178;3.878;2023-07-02T00:43:36;95.72;;;50.20;;
23282;SDS011;11810;51.178;3.878;2023-07-02T00:46:09;96.90;;;51.17;;
23282;SDS011;11810;51.178;3.878;2023-07-02T00:48:38;77.35;;;41.30;;
23282;SDS011;11810;51.178;3.878;2023-07-02T00:51:05;73.53;;;34.33;;
23282;SDS011;11810;51.178;3.878;2023-07-02T00:53:31;61.88;;;33.00;;
23282;SDS011;11810;51.178;3.878;2023-07-02T00:55:57;79.70;;;40.33;;
23282;SDS011;11810;51.178;3.878;2023-07-02T00:58:23;75.88;;;37.28;;
23282;SDS011;11810;51.178;3.878;2023-07-02T01:00:49;71.90;;;35.88;;
23282;SDS011;11810;51.178;3.878;2023-07-02T01:03:15;75.07;;;34.63;;
23282;SDS011;11810;51.178;3.878;2023-07-02T01:05:41;71.55;;;36.92;;
23282;SDS011;11810;51.178;3.878;2023-07-02T01:08:07;77.97;;;36.60;;
23282;SDS011;11810;51.178;3.878;2023-07-02T01:10:33;78.10;;;35.70;;
23282;SDS011;11810;51.178;3.878;2023-07-02T01:13:01;88.45;;;38.65;;
23282;SDS011;11810;51.178;3.878;2023-07-02T01:15:34;66.65;;;36.22;;
23282;SDS011;11810;51.178;3.878;2023-07-02T01:18:01;71.55;;;34.03;;
23282;SDS011;11810;51.178;3.878;2023-07-02T01:20:29;61.78;;;30.60;;
23282;SDS011;11810;51.178;3.878;2023-07-02T01:22:56;63.55;;;28.63;;
23282;SDS011;11810;51.178;3.878;2023-07-02T01:25:28;61.90;;;28.67;;
23282;SDS011;11810;51.178;3.878;2023-07-02T01:27:54;65.72;;;26.73;;
23282;SDS011;11810;51.178;3.878;2023-07-02T01:30:21;52.88;;;25.52;;
23282;SDS011;11810;51.178;3.878;2023-07-02T01:32:47;57.75;;;26.40;;
23282;SDS011;11810;51.178;3.878;2023-07-02T01:35:13;59.05;;;26.25;;
23282;SDS011;11810;51.178;3.878;2023-07-02T01:37:41;47.67;;;25.48;;
23282;SDS011;11810;51.178;3.878;2023-07-02T01:40:07;58.05;;;24.52;;
23282;SDS011;11810;51.178;3.878;2023-07-02T01:42:33;58.60;;;23.80;;
23282;SDS011;11810;51.178;3.878;2023-07-02T01:44:59;54.60;;;22.65;;
23282;SDS011;11810;51.178;3.878;2023-07-02T01:47:25;49.00;;;23.52;;
23282;SDS011;11810;51.178;3.878;2023-07-02T01:49:51;52.35;;;24.38;;
23282;SDS011;11810;51.178;3.878;2023-07-02T01:52:17;50.47;;;22.88;;
23282;SDS011;11810;51.178;3.878;2023-07-02T01:54:43;58.90;;;26.65;;
23282;SDS011;11810;51.178;3.878;2023-07-02T01:57:10;45.90;;;23.40;;
23282;SDS011;11810;51.178;3.878;2023-07-02T01:59:36;66.53;;;29.20;;
23282;SDS011;11810;51.178;3.878;2023-07-02T02:02:02;63.85;;;28.10;;
23282;SDS011;11810;51.178;3.878;2023-07-02T02:04:28;63.42;;;30.55;;
23282;SDS011;11810;51.178;3.878;2023-07-02T02:06:54;65.30;;;30.75;;
23282;SDS011;11810;51.178;3.878;2023-07-02T02:09:20;71.55;;;31.45;;
23282;SDS011;11810;51.178;3.878;2023-07-02T02:11:50;69.00;;;31.83;;
23282;SDS011;11810;51.178;3.878;2023-07-02T02:14:17;64.20;;;29.75;;
23282;SDS011;11810;51.178;3.878;2023-07-02T02:16:43;68.07;;;29.13;;
23282;SDS011;11810;51.178;3.878;2023-07-02T02:19:12;59.10;;;27.45;;
23282;SDS011;11810;51.178;3.878;2023-07-02T02:21:41;66.55;;;29.38;;
23282;SDS011;11810;51.178;3.878;2023-07-02T02:24:08;58.40;;;26.90;;
23282;SDS011;11810;51.178;3.878;2023-07-02T02:26:34;64.00;;;27.40;;
23282;SDS011;11810;51.178;3.878;2023-07-02T02:29:00;60.15;;;27.13;;
23282;SDS011;11810;51.178;3.878;2023-07-02T02:31:26;61.85;;;26.92;;
23282;SDS011;11810;51.178;3.878;2023-07-02T02:33:53;61.60;;;28.80;;
23282;SDS011;11810;51.178;3.878;2023-07-02T02:36:19;61.75;;;28.35;;
23282;SDS011;11810;51.178;3.878;2023-07-02T02:38:45;65.57;;;28.20;;
23282;SDS011;11810;51.178;3.878;2023-07-02T02:41:11;60.10;;;29.05;;
23282;SDS011;11810;51.178;3.878;2023-07-02T02:43:40;65.97;;;27.77;;
23282;SDS011;11810;51.178;3.878;2023-07-02T02:46:08;52.78;;;26.77;;
23282;SDS011;11810;51.178;3.878;2023-07-02T02:48:35;57.22;;;28.02;;
23282;SDS011;11810;51.178;3.878;2023-07-02T02:51:01;63.63;;;27.98;;
23282;SDS011;11810;51.178;3.878;2023-07-02T02:53:26;53.13;;;26.35;;
23282;SDS011;11810;51.178;3.878;2023-07-02T02:55:52;67.50;;;26.27;;
23282;SDS011;11810;51.178;3.878;2023-07-02T02:58:18;69.13;;;28.90;;
23282;SDS011;11810;51.178;3.878;2023-07-02T03:00:44;61.90;;;26.92;;
23282;SDS011;11810;51.178;3.878;2023-07-02T03:03:12;57.55;;;26.27;;
23282;SDS011;11810;51.178;3.878;2023-07-02T03:05:38;57.97;;;26.15;;
23282;SDS011;11810;51.178;3.878;2023-07-02T03:08:05;62.42;;;26.30;;
23282;SDS011;11810;51.178;3.878;2023-07-02T03:10:31;52.08;;;26.77;;
23282;SDS011;11810;51.178;3.878;2023-07-02T03:12:57;58.00;;;27.67;;
23282;SDS011;11810;51.178;3.878;2023-07-02T03:15:23;59.15;;;27.38;;
23282;SDS011;11810;51.178;3.878;2023-07-02T03:17:49;63.80;;;28.05;;
23282;SDS011;11810;51.178;3.878;2023-07-02T03:20:15;61.80;;;27.33;;
23282;SDS011;11810;51.178;3.878;2023-07-02T03:22:41;62.80;;;26.48;;
23282;SDS011;11810;51.178;3.878;2023-07-02T03:25:08;57.42;;;26.60;;
23282;SDS011;11810;51.178;3.878;2023-07-02T03:27:34;58.25;;;24.85;;
23282;SDS011;11810;51.178;3.878;2023-07-02T03:30:00;56.33;;;24.83;;
23282;SDS011;11810;51.178;3.878;2023-07-02T03:32:26;52.15;;;24.27;;
23282;SDS011;11810;51.178;3.878;2023-07-02T03:34:52;53.17;;;24.63;;
23282;SDS011;11810;51.178;3.878;2023-07-02T03:37:18;58.58;;;25.23;;
23282;SDS011;11810;51.178;3.878;2023-07-02T03:39:44;46.40;;;24.70;;
23282;SDS011;11810;51.178;3.878;2023-07-02T03:42:10;60.45;;;25.85;;
23282;SDS011;11810;51.178;3.878;2023-07-02T03:44:36;54.72;;;25.88;;
23282;SDS011;11810;51.178;3.878;2023-07-02T03:47:02;61.85;;;26.02;;
23282;SDS011;11810;51.178;3.878;2023-07-02T03:49:28;56.03;;;25.52;;
23282;SDS011;11810;51.178;3.878;2023-07-02T03:51:54;48.38;;;24.17;;
23282;SDS011;11810;51.178;3.878;2023-07-02T03:54:20;52.45;;;24.70;;
23282;SDS011;11810;51.178;3.878;2023-07-02T03:56:46;52.78;;;25.90;;
23282;SDS011;11810;51.178;3.878;2023-07-02T03:59:12;59.72;;;24.90;;
23282;SDS011;11810;51.178;3.878;2023-07-02T04:01:38;55.83;;;25.42;;
23282;SDS011;11810;51.178;3.878;2023-07-02T04:04:04;49.22;;;24.52;;
23282;SDS011;11810;51.178;3.878;2023-07-02T04:06:30;60.65;;;25.58;;
23282;SDS011;11810;51.178;3.878;2023-07-02T04:08:56;53.10;;;25.90;;
23282;SDS011;11810;51.178;3.878;2023-07-02T04:11:22;65.07;;;26.15;;
23282;SDS011;11810;51.178;3.878;2023-07-02T04:13:48;60.83;;;26.15;;
23282;SDS011;11810;51.178;3.878;2023-07-02T04:16:14;60.25;;;26.00;;
23282;SDS011;11810;51.178;3.878;2023-07-02T04:18:40;51.95;;;25.85;;
23282;SDS011;11810;51.178;3.878;2023-07-02T04:21:06;52.28;;;25.73;;
23282;SDS011;11810;51.178;3.878;2023-07-02T04:23:32;57.30;;;26.75;;
23282;SDS011;11810;51.178;3.878;2023-07-02T04:25:58;54.92;;;25.27;;
23282;SDS011;11810;51.178;3.878;2023-07-02T04:28:23;59.95;;;28.05;;
23282;SDS011;11810;51.178;3.878;2023-07-02T04:30:49;59.80;;;28.02;;
23282;SDS011;11810;51.178;3.878;2023-07-02T04:33:17;57.50;;;27.75;;
23282;SDS011;11810;51.178;3.878;2023-07-02T04:35:43;59.70;;;27.95;;
23282;SDS011;11810;51.178;3.878;2023-07-02T04:38:08;58.83;;;24.50;;
23282;SDS011;11810;51.178;3.878;2023-07-02T04:40:34;52.88;;;24.00;;
23282;SDS011;11810;51.178;3.878;2023-07-02T04:43:00;57.65;;;25.67;;
23282;SDS011;11810;51.178;3.878;2023-07-02T04:45:28;53.40;;;25.20;;
23282;SDS011;11810;51.178;3.878;2023-07-02T04:48:01;57.00;;;25.23;;
23282;SDS011;11810;51.178;3.878;2023-07-02T04:50:28;55.17;;;25.85;;
23282;SDS011;11810;51.178;3.878;2023-07-02T04:52:54;66.20;;;29.73;;
23282;SDS011;11810;51.178;3.878;2023-07-02T04:55:20;61.13;;;28.88;;
23282;SDS011;11810;51.178;3.878;2023-07-02T04:57:47;64.05;;;29.45;;
23282;SDS011;11810;51.178;3.878;2023-07-02T05:00:12;52.30;;;26.30;;
23282;SDS011;11810;51.178;3.878;2023-07-02T05:02:39;57.15;;;27.42;;
23282;SDS011;11810;51.178;3.878;2023-07-02T05:05:06;84.80;;;35.63;;
23282;SDS011;11810;51.178;3.878;2023-07-02T05:07:32;71.75;;;34.92;;
23282;SDS011;11810;51.178;3.878;2023-07-02T05:09:58;69.72;;;33.92;;
23282;SDS011;11810;51.178;3.878;2023-07-02T05:12:24;58.38;;;24.90;;
23282;SDS011;11810;51.178;3.878;2023-07-02T05:14:50;45.30;;;19.58;;
23282;SDS011;11810;51.178;3.878;2023-07-02T05:17:16;41.40;;;16.85;;
23282;SDS011;11810;51.178;3.878;2023-07-02T05:19:42;35.78;;;15.85;;
23282;SDS011;11810;51.178;3.878;2023-07-02T05:22:09;32.85;;;14.13;;
23282;SDS011;11810;51.178;3.878;2023-07-02T05:24:35;34.05;;;15.52;;
23282;SDS011;11810;51.178;3.878;2023-07-02T05:27:01;29.48;;;14.35;;
23282;SDS011;11810;51.178;3.878;2023-07-02T05:29:27;34.50;;;14.15;;
23282;SDS011;11810;51.178;3.878;2023-07-02T05:31:53;27.90;;;11.38;;
23282;SDS011;11810;51.178;3.878;2023-07-02T05:34:19;22.80;;;11.60;;
23282;SDS011;11810;51.178;3.878;2023-07-02T05:36:45;23.58;;;11.18;;
23282;SDS011;11810;51.178;3.878;2023-07-02T05:39:12;27.02;;;11.30;;
23282;SDS011;11810;51.178;3.878;2023-07-02T05:41:38;27.20;;;10.80;;
23282;SDS011;11810;51.178;3.878;2023-07-02T05:44:03;22.75;;;9.70;;
23282;SDS011;11810;51.178;3.878;2023-07-02T05:46:29;24.58;;;9.32;;
23282;SDS011;11810;51.178;3.878;2023-07-02T05:48:55;21.30;;;9.05;;
23282;SDS011;11810;51.178;3.878;2023-07-02T05:51:24;16.67;;;7.30;;
23282;SDS011;11810;51.178;3.878;2023-07-02T05:53:51;18.63;;;7.13;;
23282;SDS011;11810;51.178;3.878;2023-07-02T05:56:17;18.48;;;7.78;;
23282;SDS011;11810;51.178;3.878;2023-07-02T05:58:45;16.00;;;6.68;;
23282;SDS011;11810;51.178;3.878;2023-07-02T06:01:11;26.20;;;7.93;;
23282;SDS011;11810;51.178;3.878;2023-07-02T06:03:37;21.73;;;8.38;;
23282;SDS011;11810;51.178;3.878;2023-07-02T06:06:03;21.73;;;6.70;;
23282;SDS011;11810;51.178;3.878;2023-07-02T06:08:29;14.75;;;6.38;;
23282;SDS011;11810;51.178;3.878;2023-07-02T06:10:55;19.42;;;6.47;;
23282;SDS011;11810;51.178;3.878;2023-07-02T06:13:21;16.40;;;7.47;;
23282;SDS011;11810;51.178;3.878;2023-07-02T06:15:47;19.60;;;7.35;;
23282;SDS011;11810;51.178;3.878;2023-07-02T06:18:13;13.93;;;6.38;;
23282;SDS011;11810;51.178;3.878;2023-07-02T06:20:39;22.10;;;6.80;;
23282;SDS011;11810;51.178;3.878;2023-07-02T06:23:05;16.60;;;6.32;;
23282;SDS011;11810;51.178;3.878;2023-07-02T06:25:31;13.75;;;6.97;;
23282;SDS011;11810;51.178;3.878;2023-07-02T06:27:57;14.57;;;5.82;;
23282;SDS011;11810;51.178;3.878;2023-07-02T06:30:23;16.17;;;6.32;;
23282;SDS011;11810;51.178;3.878;2023-07-02T06:32:50;14.32;;;6.53;;
23282;SDS011;11810;51.178;3.878;2023-07-02T06:35:16;23.85;;;6.18;;
23282;SDS011;11810;51.178;3.878;2023-07-02T06:37:42;15.73;;;6.40;;
23282;SDS011;11810;51.178;3.878;2023-07-02T06:40:09;15.95;;;6.43;;
23282;SDS011;11810;51.178;3.878;2023-07-02T06:42:35;14.85;;;6.05;;
23282;SDS011;11810;51.178;3.878;2023-07-02T06:45:01;17.70;;;5.80;;
23282;SDS011;11810;51.178;3.878;2023-07-02T06:47:28;13.60;;;6.05;;
23282;SDS011;11810;51.178;3.878;2023-07-02T06:49:54;16.63;;;5.70;;
23282;SDS011;11810;51.178;3.878;2023-07-02T06:52:20;16.80;;;5.72;;
23282;SDS011;11810;51.178;3.878;2023-07-02T06:54:46;14.02;;;5.95;;
23282;SDS011;11810;51.178;3.878;2023-07-02T06:57:12;13.68;;;5.35;;
23282;SDS011;11810;51.178;3.878;2023-07-02T06:59:38;23.40;;;6.55;;
23282;SDS011;11810;51.178;3.878;2023-07-02T07:02:04;16.33;;;6.20;;
23282;SDS011;11810;51.178;3.878;2023-07-02T07:04:31;14.93;;;5.63;;
23282;SDS011;11810;51.178;3.878;2023-07-02T07:06:57;13.30;;;5.82;;
23282;SDS011;11810;51.178;3.878;2023-07-02T07:09:22;17.85;;;5.70;;
23282;SDS011;11810;51.178;3.878;2023-07-02T07:11:48;19.20;;;6.32;;
23282;SDS011;11810;51.178;3.878;2023-07-02T07:14:14;19.90;;;6.35;;
23282;SDS011;11810;51.178;3.878;2023-07-02T07:16:41;14.68;;;5.93;;
23282;SDS011;11810;51.178;3.878;2023-07-02T07:19:07;19.73;;;6.18;;
23282;SDS011;11810;51.178;3.878;2023-07-02T07:21:36;18.00;;;6.50;;
23282;SDS011;11810;51.178;3.878;2023-07-02T07:24:02;17.00;;;6.05;;
23282;SDS011;11810;51.178;3.878;2023-07-02T07:26:28;19.02;;;7.00;;
23282;SDS011;11810;51.178;3.878;2023-07-02T07:28:53;13.75;;;5.57;;
23282;SDS011;11810;51.178;3.878;2023-07-02T07:31:21;19.00;;;6.35;;
23282;SDS011;11810;51.178;3.878;2023-07-02T07:33:47;15.95;;;6.35;;
23282;SDS011;11810;51.178;3.878;2023-07-02T07:36:13;17.40;;;5.90;;
23282;SDS011;11810;51.178;3.878;2023-07-02T07:38:39;22.77;;;6.38;;
23282;SDS011;11810;51.178;3.878;2023-07-02T07:41:05;14.88;;;6.85;;
23282;SDS011;11810;51.178;3.878;2023-07-02T07:43:31;17.08;;;6.82;;
23282;SDS011;11810;51.178;3.878;2023-07-02T07:45:57;17.98;;;6.85;;
23282;SDS011;11810;51.178;3.878;2023-07-02T07:48:24;19.55;;;7.15;;
23282;SDS011;11810;51.178;3.878;2023-07-02T07:50:50;16.90;;;6.28;;
23282;SDS011;11810;51.178;3.878;2023-07-02T07:53:16;19.67;;;6.50;;
23282;SDS011;11810;51.178;3.878;2023-07-02T07:55:42;23.80;;;10.27;;
23282;SDS011;11810;51.178;3.878;2023-07-02T07:58:08;20.98;;;9.00;;
23282;SDS011;11810;51.178;3.878;2023-07-02T08:00:34;23.05;;;9.05;;
23282;SDS011;11810;51.178;3.878;2023-07-02T08:03:00;23.73;;;9.95;;
23282;SDS011;11810;51.178;3.878;2023-07-02T08:05:27;21.92;;;8.13;;
23282;SDS011;11810;51.178;3.878;2023-07-02T08:07:54;14.38;;;6.95;;
23282;SDS011;11810;51.178;3.878;2023-07-02T08:10:20;24.42;;;7.75;;
23282;SDS011;11810;51.178;3.878;2023-07-02T08:12:46;22.00;;;9.73;;
23282;SDS011;11810;51.178;3.878;2023-07-02T08:15:13;21.33;;;9.02;;
23282;SDS011;11810;51.178;3.878;2023-07-02T08:17:39;22.75;;;8.77;;
23282;SDS011;11810;51.178;3.878;2023-07-02T08:20:05;19.23;;;8.80;;
23282;SDS011;11810;51.178;3.878;2023-07-02T08:22:35;24.67;;;9.07;;
23282;SDS011;11810;51.178;3.878;2023-07-02T08:25:04;26.30;;;10.85;;
23282;SDS011;11810;51.178;3.878;2023-07-02T08:27:31;27.55;;;10.60;;
23282;SDS011;11810;51.178;3.878;2023-07-02T08:29:58;24.55;;;10.75;;
23282;SDS011;11810;51.178;3.878;2023-07-02T08:32:24;32.10;;;11.63;;
23282;SDS011;11810;51.178;3.878;2023-07-02T08:34:50;28.60;;;11.13;;
23282;SDS011;11810;51.178;3.878;2023-07-02T08:37:17;28.77;;;11.65;;
23282;SDS011;11810;51.178;3.878;2023-07-02T08:39:43;28.58;;;11.45;;
23282;SDS011;11810;51.178;3.878;2023-07-02T08:42:09;24.35;;;11.48;;
23282;SDS011;11810;51.178;3.878;2023-07-02T08:44:35;24.15;;;11.10;;
23282;SDS011;11810;51.178;3.878;2023-07-02T08:47:01;29.25;;;12.02;;
23282;SDS011;11810;51.178;3.878;2023-07-02T08:49:28;27.23;;;10.60;;
23282;SDS011;11810;51.178;3.878;2023-07-02T08:51:54;30.55;;;11.48;;
23282;SDS011;11810;51.178;3.878;2023-07-02T08:54:20;28.15;;;12.10;;
23282;SDS011;11810;51.178;3.878;2023-07-02T08:56:46;25.25;;;11.73;;
23282;SDS011;11810;51.178;3.878;2023-07-02T08:59:12;25.67;;;12.63;;
23282;SDS011;11810;51.178;3.878;2023-07-02T09:01:48;24.98;;;10.40;;
23282;SDS011;11810;51.178;3.878;2023-07-02T09:04:16;26.50;;;10.55;;
23282;SDS011;11810;51.178;3.878;2023-07-02T09:07:02;30.13;;;11.38;;
23282;SDS011;11810;51.178;3.878;2023-07-02T09:09:28;24.95;;;10.60;;
23282;SDS011;11810;51.178;3.878;2023-07-02T09:11:54;25.38;;;10.98;;
23282;SDS011;11810;51.178;3.878;2023-07-02T09:14:23;28.95;;;11.48;;
23282;SDS011;11810;51.178;3.878;2023-07-02T09:19:32;27.45;;;11.68;;
23282;SDS011;11810;51.178;3.878;2023-07-02T09:21:59;23.77;;;10.18;;
23282;SDS011;11810;51.178;3.878;2023-07-02T09:24:26;29.20;;;10.98;;
23282;SDS011;11810;51.178;3.878;2023-07-02T09:26:55;23.52;;;9.65;;
23282;SDS011;11810;51.178;3.878;2023-07-02T09:29:26;27.83;;;10.23;;
23282;SDS011;11810;51.178;3.878;2023-07-02T09:31:59;23.73;;;9.73;;
23282;SDS011;11810;51.178;3.878;2023-07-02T09:34:28;20.77;;;8.65;;
23282;SDS011;11810;51.178;3.878;2023-07-02T09:36:55;23.83;;;9.82;;
23282;SDS011;11810;51.178;3.878;2023-07-02T09:39:25;17.88;;;7.95;;
23282;SDS011;11810;51.178;3.878;2023-07-02T09:41:57;21.30;;;8.10;;
23282;SDS011;11810;51.178;3.878;2023-07-02T09:44:30;24.05;;;8.07;;
23282;SDS011;11810;51.178;3.878;2023-07-02T09:47:02;18.60;;;6.90;;
23282;SDS011;11810;51.178;3.878;2023-07-02T09:49:36;15.15;;;7.05;;
23282;SDS011;11810;51.178;3.878;2023-07-02T09:52:04;22.77;;;7.32;;
23282;SDS011;11810;51.178;3.878;2023-07-02T09:54:34;21.05;;;7.07;;
23282;SDS011;11810;51.178;3.878;2023-07-02T09:57:01;16.73;;;6.97;;
23282;SDS011;11810;51.178;3.878;2023-07-02T09:59:28;19.88;;;7.03;;
23282;SDS011;11810;51.178;3.878;2023-07-02T10:01:54;15.13;;;6.55;;
23282;SDS011;11810;51.178;3.878;2023-07-02T10:04:21;16.25;;;7.20;;
23282;SDS011;11810;51.178;3.878;2023-07-02T10:06:51;18.85;;;7.13;;
23282;SDS011;11810;51.178;3.878;2023-07-02T10:09:18;16.70;;;7.60;;
23282;SDS011;11810;51.178;3.878;2023-07-02T10:11:45;17.02;;;6.93;;
23282;SDS011;11810;51.178;3.878;2023-07-02T10:14:12;12.98;;;6.53;;
23282;SDS011;11810;51.178;3.878;2023-07-02T10:16:50;18.10;;;6.95;;
23282;SDS011;11810;51.178;3.878;2023-07-02T10:19:20;18.55;;;5.82;;
23282;SDS011;11810;51.178;3.878;2023-07-02T10:21:47;15.18;;;6.53;;
23282;SDS011;11810;51.178;3.878;2023-07-02T10:24:27;15.15;;;5.75;;
23282;SDS011;11810;51.178;3.878;2023-07-02T10:29:23;15.13;;;6.28;;
23282;SDS011;11810;51.178;3.878;2023-07-02T10:31:53;19.40;;;7.00;;
23282;SDS011;11810;51.178;3.878;2023-07-02T10:34:33;14.10;;;6.57;;
23282;SDS011;11810;51.178;3.878;2023-07-02T10:37:03;15.15;;;6.32;;
23282;SDS011;11810;51.178;3.878;2023-07-02T10:39:29;17.75;;;6.22;;
23282;SDS011;11810;51.178;3.878;2023-07-02T10:42:05;20.77;;;6.72;;
23282;SDS011;11810;51.178;3.878;2023-07-02T10:44:45;17.20;;;6.03;;
23282;SDS011;11810;51.178;3.878;2023-07-02T10:47:13;16.40;;;6.63;;
23282;SDS011;11810;51.178;3.878;2023-07-02T10:49:39;19.65;;;8.27;;
23282;SDS011;11810;51.178;3.878;2023-07-02T10:52:05;18.42;;;6.38;;
23282;SDS011;11810;51.178;3.878;2023-07-02T10:54:45;16.13;;;6.50;;
23282;SDS011;11810;51.178;3.878;2023-07-02T10:57:18;18.92;;;6.70;;
23282;SDS011;11810;51.178;3.878;2023-07-02T10:59:47;19.52;;;6.28;;
23282;SDS011;11810;51.178;3.878;2023-07-02T11:02:14;14.70;;;6.40;;
23282;SDS011;11810;51.178;3.878;2023-07-02T11:04:40;14.93;;;6.20;;
23282;SDS011;11810;51.178;3.878;2023-07-02T11:07:06;16.90;;;5.55;;
23282;SDS011;11810;51.178;3.878;2023-07-02T11:09:35;21.10;;;7.75;;
23282;SDS011;11810;51.178;3.878;2023-07-02T11:12:01;15.48;;;6.45;;
23282;SDS011;11810;51.178;3.878;2023-07-02T11:14:27;11.50;;;5.70;;
23282;SDS011;11810;51.178;3.878;2023-07-02T11:16:57;12.32;;;5.22;;
23282;SDS011;11810;51.178;3.878;2023-07-02T11:19:24;13.98;;;5.60;;
23282;SDS011;11810;51.178;3.878;2023-07-02T11:21:54;15.02;;;6.70;;
23282;SDS011;11810;51.178;3.878;2023-07-02T11:24:33;16.05;;;5.47;;
23282;SDS011;11810;51.178;3.878;2023-07-02T11:27:01;14.10;;;5.03;;
23282;SDS011;11810;51.178;3.878;2023-07-02T11:29:30;18.15;;;5.68;;
23282;SDS011;11810;51.178;3.878;2023-07-02T11:34:32;15.55;;;5.43;;
23282;SDS011;11810;51.178;3.878;2023-07-02T11:36:58;12.15;;;4.82;;
23282;SDS011;11810;51.178;3.878;2023-07-02T11:39:24;11.90;;;5.53;;
23282;SDS011;11810;51.178;3.878;2023-07-02T11:41:50;14.05;;;4.75;;
23282;SDS011;11810;51.178;3.878;2023-07-02T11:44:17;12.88;;;5.00;;
23282;SDS011;11810;51.178;3.878;2023-07-02T11:46:43;10.85;;;4.85;;
23282;SDS011;11810;51.178;3.878;2023-07-02T11:49:10;14.27;;;5.18;;
23282;SDS011;11810;51.178;3.878;2023-07-02T11:51:36;8.88;;;4.15;;
23282;SDS011;11810;51.178;3.878;2023-07-02T11:54:03;10.68;;;4.32;;
23282;SDS011;11810;51.178;3.878;2023-07-02T11:56:30;11.30;;;4.65;;
23282;SDS011;11810;51.178;3.878;2023-07-02T11:58:56;12.52;;;4.97;;
23282;SDS011;11810;51.178;3.878;2023-07-02T12:01:22;11.00;;;4.78;;
23282;SDS011;11810;51.178;3.878;2023-07-02T12:03:48;12.98;;;4.97;;
23282;SDS011;11810;51.178;3.878;2023-07-02T12:06:14;13.73;;;5.75;;
23282;SDS011;11810;51.178;3.878;2023-07-02T12:08:40;10.77;;;4.93;;
23282;SDS011;11810;51.178;3.878;2023-07-02T12:11:07;11.10;;;5.10;;
23282;SDS011;11810;51.178;3.878;2023-07-02T12:13:33;14.23;;;5.95;;
23282;SDS011;11810;51.178;3.878;2023-07-02T12:16:01;11.20;;;5.25;;
23282;SDS011;11810;51.178;3.878;2023-07-02T12:18:27;12.73;;;5.68;;
23282;SDS011;11810;51.178;3.878;2023-07-02T12:20:53;12.77;;;6.03;;
23282;SDS011;11810;51.178;3.878;2023-07-02T12:23:19;14.18;;;6.18;;
23282;SDS011;11810;51.178;3.878;2023-07-02T12:25:45;18.45;;;7.30;;
23282;SDS011;11810;51.178;3.878;2023-07-02T12:28:11;18.15;;;6.88;;
23282;SDS011;11810;51.178;3.878;2023-07-02T12:30:37;15.27;;;6.53;;
23282;SDS011;11810;51.178;3.878;2023-07-02T12:33:03;9.85;;;5.03;;
23282;SDS011;11810;51.178;3.878;2023-07-02T12:35:29;12.07;;;4.95;;
23282;SDS011;11810;51.178;3.878;2023-07-02T12:37:55;14.27;;;5.55;;
23282;SDS011;11810;51.178;3.878;2023-07-02T12:40:21;12.88;;;4.97;;
23282;SDS011;11810;51.178;3.878;2023-07-02T12:42:47;14.60;;;6.28;;
23282;SDS011;11810;51.178;3.878;2023-07-02T12:45:15;13.73;;;6.88;;
23282;SDS011;11810;51.178;3.878;2023-07-02T12:47:41;17.65;;;8.18;;
23282;SDS011;11810;51.178;3.878;2023-07-02T12:50:09;15.38;;;8.30;;
23282;SDS011;11810;51.178;3.878;2023-07-02T12:52:35;19.83;;;7.20;;
23282;SDS011;11810;51.178;3.878;2023-07-02T12:55:01;19.27;;;6.70;;
23282;SDS011;11810;51.178;3.878;2023-07-02T12:57:28;14.32;;;6.30;;
23282;SDS011;11810;51.178;3.878;2023-07-02T12:59:54;9.52;;;5.50;;
23282;SDS011;11810;51.178;3.878;2023-07-02T13:02:21;17.30;;;6.95;;
23282;SDS011;11810;51.178;3.878;2023-07-02T13:04:48;14.45;;;6.28;;
23282;SDS011;11810;51.178;3.878;2023-07-02T13:07:14;15.35;;;6.70;;
23282;SDS011;11810;51.178;3.878;2023-07-02T13:09:40;16.50;;;6.15;;
23282;SDS011;11810;51.178;3.878;2023-07-02T13:12:06;14.30;;;6.30;;
23282;SDS011;11810;51.178;3.878;2023-07-02T13:14:33;15.38;;;6.60;;
23282;SDS011;11810;51.178;3.878;2023-07-02T13:17:00;17.02;;;7.45;;
23282;SDS011;11810;51.178;3.878;2023-07-02T13:19:28;18.95;;;7.05;;
23282;SDS011;11810;51.178;3.878;2023-07-02T13:21:54;17.00;;;6.93;;
23282;SDS011;11810;51.178;3.878;2023-07-02T13:24:20;16.13;;;6.43;;
23282;SDS011;11810;51.178;3.878;2023-07-02T13:26:46;16.58;;;6.72;;
23282;SDS011;11810;51.178;3.878;2023-07-02T13:29:12;19.35;;;7.65;;
23282;SDS011;11810;51.178;3.878;2023-07-02T13:31:38;16.63;;;6.85;;
23282;SDS011;11810;51.178;3.878;2023-07-02T13:34:04;17.67;;;5.78;;
23282;SDS011;11810;51.178;3.878;2023-07-02T13:36:30;12.38;;;6.22;;
23282;SDS011;11810;51.178;3.878;2023-07-02T13:38:56;15.13;;;6.50;;
23282;SDS011;11810;51.178;3.878;2023-07-02T13:41:22;13.98;;;5.97;;
23282;SDS011;11810;51.178;3.878;2023-07-02T13:43:48;15.63;;;7.93;;
23282;SDS011;11810;51.178;3.878;2023-07-02T13:46:14;17.70;;;7.25;;
23282;SDS011;11810;51.178;3.878;2023-07-02T13:48:40;15.55;;;6.70;;
23282;SDS011;11810;51.178;3.878;2023-07-02T13:51:06;15.35;;;6.93;;
23282;SDS011;11810;51.178;3.878;2023-07-02T13:53:33;19.90;;;7.72;;
23282;SDS011;11810;51.178;3.878;2023-07-02T13:55:59;13.27;;;7.00;;
23282;SDS011;11810;51.178;3.878;2023-07-02T13:58:25;16.95;;;8.00;;
23282;SDS011;11810;51.178;3.878;2023-07-02T14:00:51;18.73;;;8.13;;
23282;SDS011;11810;51.178;3.878;2023-07-02T14:03:17;16.83;;;7.68;;
23282;SDS011;11810;51.178;3.878;2023-07-02T14:05:43;17.05;;;7.28;;
23282;SDS011;11810;51.178;3.878;2023-07-02T14:08:09;13.98;;;6.55;;
23282;SDS011;11810;51.178;3.878;2023-07-02T14:10:35;14.82;;;5.57;;
23282;SDS011;11810;51.178;3.878;2023-07-02T14:13:01;16.38;;;5.90;;
23282;SDS011;11810;51.178;3.878;2023-07-02T14:15:27;15.75;;;6.50;;
23282;SDS011;11810;51.178;3.878;2023-07-02T14:17:53;16.13;;;5.82;;
23282;SDS011;11810;51.178;3.878;2023-07-02T14:20:19;17.33;;;6.00;;
23282;SDS011;11810;51.178;3.878;2023-07-02T14:22:46;14.68;;;5.78;;
23282;SDS011;11810;51.178;3.878;2023-07-02T14:25:12;11.70;;;5.55;;
23282;SDS011;11810;51.178;3.878;2023-07-02T14:27:38;15.32;;;6.55;;
23282;SDS011;11810;51.178;3.878;2023-07-02T14:30:04;17.90;;;8.15;;
23282;SDS011;11810;51.178;3.878;2023-07-02T14:32:33;16.83;;;7.25;;
23282;SDS011;11810;51.178;3.878;2023-07-02T14:35:01;22.10;;;8.48;;